createdAt,value
2022-08-12T00:00:08.837Z,22.72
2022-08-12T00:02:54.985Z,22.64
2022-08-12T00:05:57.154Z,22.68
2022-08-12T00:08:48.368Z,22.67
2022-08-12T00:11:34.518Z,22.33
2022-08-12T00:14:20.171Z,22.64
2022-08-12T00:17:07.333Z,22.67
2022-08-12T00:19:53.040Z,22.08
2022-08-12T00:22:41.892Z,22.57
2022-08-12T00:26:05.507Z,22.48
2022-08-12T00:28:34.009Z,22.36
2022-08-12T00:31:20.062Z,22.38
2022-08-12T00:34:05.740Z,22.44
2022-08-12T00:36:51.658Z,22.30
2022-08-12T00:39:38.785Z,21.99
2022-08-12T00:42:13.083Z,22.09
2022-08-12T00:44:43.528Z,22.23
2022-08-12T00:47:25.051Z,22.25
2022-08-12T00:49:55.023Z,22.24
2022-08-12T00:52:24.689Z,22.08
2022-08-12T00:54:57.361Z,22.09
2022-08-12T00:57:28.973Z,21.64
2022-08-12T00:59:59.890Z,21.93
2022-08-12T01:02:30.229Z,21.65
2022-08-12T01:05:17.739Z,21.95
2022-08-12T01:08:04.329Z,21.99
2022-08-12T01:10:55.001Z,21.89
2022-08-12T01:13:24.458Z,21.94
2022-08-12T01:15:54.920Z,22.03
2022-08-12T01:18:24.968Z,21.91
2022-08-12T01:21:13.158Z,21.81
2022-08-12T01:24:30.425Z,21.73
2022-08-12T01:26:57.538Z,21.71
2022-08-12T01:29:32.420Z,21.70
2022-08-12T01:32:06.654Z,21.75
2022-08-12T01:34:38.741Z,21.77
2022-08-12T01:37:08.980Z,21.80
2022-08-12T01:40:33.684Z,21.69
2022-08-12T01:42:39.168Z,21.84
2022-08-12T01:45:08.816Z,21.78
2022-08-12T01:47:50.906Z,21.81
2022-08-12T01:50:27.588Z,21.80
2022-08-12T01:53:02.853Z,21.10
2022-08-12T01:55:34.378Z,21.44
2022-08-12T01:58:16.488Z,21.52
2022-08-12T02:00:55.008Z,21.46
2022-08-12T02:03:59.656Z,21.41
2022-08-12T02:06:48.577Z,21.49
2022-08-12T02:09:39.725Z,21.52
2022-08-12T02:12:27.656Z,21.49
2022-08-12T02:15:13.400Z,21.35
2022-08-12T02:17:57.846Z,21.42
2022-08-12T02:20:52.221Z,21.46
2022-08-12T02:23:27.193Z,21.14
2022-08-12T02:25:59.591Z,21.38
2022-08-12T02:28:29.131Z,21.28
2022-08-12T02:31:03.299Z,21.19
2022-08-12T02:33:32.958Z,21.21
2022-08-12T02:36:02.669Z,21.27
2022-08-12T02:38:31.529Z,21.19
2022-08-12T02:41:03.958Z,21.23
2022-08-12T02:43:37.983Z,21.18
2022-08-12T02:46:14.145Z,21.09
2022-08-12T02:48:49.247Z,21.01
2022-08-12T02:51:20.622Z,21.14
2022-08-12T02:54:03.036Z,21.05
2022-08-12T02:56:37.964Z,20.57
2022-08-12T02:59:06.935Z,21.02
2022-08-12T03:01:47.724Z,20.93
2022-08-12T03:04:24.608Z,20.87
2022-08-12T03:07:02.284Z,20.80
2022-08-12T03:09:55.335Z,20.76
2022-08-12T03:12:25.797Z,20.46
2022-08-12T03:15:05.768Z,20.69
2022-08-12T03:17:44.531Z,20.78
2022-08-12T03:20:17.446Z,20.80
2022-08-12T03:22:47.545Z,20.72
2022-08-12T03:25:18.768Z,20.52
2022-08-12T03:27:51.844Z,20.60
2022-08-12T03:30:21.387Z,20.59
2022-08-12T03:32:52.657Z,20.68
2022-08-12T03:35:36.988Z,20.75
2022-08-12T03:38:12.395Z,20.23
2022-08-12T03:41:09.957Z,20.51
2022-08-12T03:44:06.957Z,20.42
2022-08-12T03:46:57.851Z,20.31
2022-08-12T03:49:45.697Z,20.52
2022-08-12T03:52:31.448Z,20.61
2022-08-12T03:55:17.346Z,20.61
2022-08-12T03:58:03.060Z,20.67
2022-08-12T04:00:31.879Z,20.39
2022-08-12T04:03:01.919Z,20.54
2022-08-12T04:05:55.106Z,20.45
2022-08-12T04:08:25.888Z,20.32
2022-08-12T04:11:12.158Z,20.48
2022-08-12T04:13:40.840Z,20.28
2022-08-12T04:16:13.779Z,20.68
2022-08-12T04:18:43.591Z,20.24
2022-08-12T04:21:13.382Z,20.68
2022-08-12T04:23:47.877Z,21.06
2022-08-12T04:26:16.837Z,21.15
2022-08-12T04:28:46.079Z,21.26
2022-08-12T04:31:14.414Z,21.33
2022-08-12T04:33:44.248Z,21.39
2022-08-12T04:36:13.971Z,21.52
2022-08-12T04:38:43.340Z,21.62
2022-08-12T04:41:12.130Z,21.19
2022-08-12T04:44:01.376Z,21.67
2022-08-12T04:46:33.680Z,21.72
2022-08-12T04:49:03.761Z,21.75
2022-08-12T04:51:34.588Z,21.51
2022-08-12T04:54:03.529Z,21.70
2022-08-12T04:56:35.476Z,21.76
2022-08-12T04:59:04.451Z,21.86
2022-08-12T05:01:32.946Z,22.03
2022-08-12T05:04:03.005Z,22.08
2022-08-12T05:06:32.885Z,22.15
2022-08-12T05:09:02.076Z,22.11
2022-08-12T05:11:39.351Z,22.04
2022-08-12T05:14:22.190Z,22.21
2022-08-12T05:16:50.367Z,22.04
2022-08-12T05:19:22.449Z,22.06
2022-08-12T05:21:52.407Z,21.94
2022-08-12T05:24:20.656Z,22.11
2022-08-12T05:26:49.378Z,22.27
2022-08-12T05:30:06.859Z,22.58
2022-08-12T05:32:06.703Z,22.73
2022-08-12T05:34:36.087Z,22.83
2022-08-12T05:37:05.984Z,22.76
2022-08-12T05:39:35.412Z,23.05
2022-08-12T05:42:04.127Z,23.22
2022-08-12T05:44:32.370Z,22.82
2022-08-12T05:47:00.566Z,23.53
2022-08-12T05:49:29.726Z,23.35
2022-08-12T05:51:58.197Z,23.78
2022-08-12T05:54:54.445Z,23.85
2022-08-12T05:57:15.986Z,23.83
2022-08-12T05:59:44.469Z,23.96
2022-08-12T06:02:13.660Z,23.99
2022-08-12T06:04:42.306Z,24.04
2022-08-12T06:08:01.615Z,23.95
2022-08-12T06:10:02.382Z,24.07
2022-08-12T06:12:31.000Z,24.18
2022-08-12T06:14:59.278Z,24.19
2022-08-12T06:17:27.438Z,24.20
2022-08-12T06:20:22.775Z,24.12
2022-08-12T06:22:47.937Z,23.99
2022-08-12T06:25:19.490Z,23.87
2022-08-12T06:28:06.169Z,23.64
2022-08-12T06:30:39.042Z,23.83
2022-08-12T06:33:22.202Z,23.87
2022-08-12T06:35:52.311Z,23.84
2022-08-12T06:38:28.462Z,23.87
2022-08-12T06:41:17.210Z,24.05
2022-08-12T06:44:06.278Z,24.21
2022-08-12T06:46:37.071Z,24.28
2022-08-12T06:49:07.068Z,24.29
2022-08-12T06:51:35.501Z,24.45
2022-08-12T06:54:03.774Z,24.55
2022-08-12T06:57:02.468Z,24.64
2022-08-12T06:59:23.779Z,24.73
2022-08-12T07:01:52.195Z,24.45
2022-08-12T07:04:38.228Z,24.52
2022-08-12T07:07:08.472Z,24.15
2022-08-12T07:10:03.905Z,24.02
2022-08-12T07:12:27.955Z,23.78
2022-08-12T07:14:57.433Z,23.49
2022-08-12T07:17:26.042Z,23.23
2022-08-12T07:19:58.025Z,22.86
2022-08-12T07:22:28.742Z,23.23
2022-08-12T07:25:10.826Z,23.19
2022-08-12T07:27:42.809Z,23.40
2022-08-12T07:30:12.555Z,23.38
2022-08-12T07:32:40.872Z,23.57
2022-08-12T07:35:10.021Z,23.65
2022-08-12T07:37:42.023Z,23.59
2022-08-12T07:40:12.312Z,23.80
2022-08-12T07:42:43.718Z,23.82
2022-08-12T07:45:13.149Z,23.84
2022-08-12T07:47:43.630Z,23.99
2022-08-12T07:50:12.955Z,23.98
2022-08-12T07:52:43.444Z,24.34
2022-08-12T07:55:12.879Z,24.54
2022-08-12T07:57:57.922Z,24.61
2022-08-12T08:00:27.288Z,24.58
2022-08-12T08:02:56.131Z,24.38
2022-08-12T08:05:25.830Z,24.87
2022-08-12T08:07:56.050Z,24.93
2022-08-12T08:10:24.418Z,24.82
2022-08-12T08:12:58.265Z,24.78
2022-08-12T08:16:00.714Z,24.72
2022-08-12T08:18:25.628Z,24.82
2022-08-12T08:20:56.449Z,25.03
2022-08-12T08:23:46.980Z,24.91
2022-08-12T08:26:25.021Z,24.81
2022-08-12T08:28:54.589Z,24.83
2022-08-12T08:31:22.964Z,25.06
2022-08-12T08:34:09.571Z,25.21
2022-08-12T08:36:40.218Z,25.53
2022-08-12T08:39:12.035Z,25.48
2022-08-12T08:42:17.011Z,25.58
2022-08-12T08:44:49.781Z,25.59
2022-08-12T08:47:26.539Z,25.51
2022-08-12T08:50:01.165Z,25.29
2022-08-12T08:52:40.074Z,25.28
2022-08-12T08:55:10.584Z,25.30
2022-08-12T08:57:43.979Z,25.48
2022-08-12T09:00:19.043Z,25.58
2022-08-12T09:02:49.306Z,25.55
2022-08-12T09:05:43.062Z,25.67
2022-08-12T09:08:26.898Z,25.48
2022-08-12T09:10:59.999Z,25.16
2022-08-12T09:14:10.927Z,25.26
2022-08-12T09:16:23.258Z,25.39
2022-08-12T09:18:52.636Z,25.43
2022-08-12T09:21:23.212Z,25.58
2022-08-12T09:24:00.076Z,25.69
2022-08-12T09:26:38.186Z,25.87
2022-08-12T09:29:15.546Z,25.91
2022-08-12T09:32:02.955Z,26.17
2022-08-12T09:34:36.533Z,26.17
2022-08-12T09:37:19.628Z,26.19
2022-08-12T09:40:05.161Z,26.36
2022-08-12T09:43:17.282Z,26.60
2022-08-12T09:46:06.694Z,26.50
2022-08-12T09:48:42.392Z,26.38
2022-08-12T09:51:22.066Z,26.62
2022-08-12T09:54:33.715Z,26.58
2022-08-12T09:57:02.725Z,26.43
2022-08-12T10:00:15.873Z,26.48
2022-08-12T10:02:41.813Z,26.55
2022-08-12T10:05:13.717Z,26.36
2022-08-12T10:07:45.886Z,26.42
2022-08-12T10:10:23.858Z,26.69
2022-08-12T10:13:12.086Z,26.80
2022-08-12T10:16:02.711Z,27.01
2022-08-12T10:18:35.288Z,27.34
2022-08-12T10:21:09.578Z,27.50
2022-08-12T10:23:39.890Z,27.26
2022-08-12T10:26:36.697Z,27.23
2022-08-12T10:30:01.992Z,27.25
2022-08-12T10:32:20.970Z,27.31
2022-08-12T10:34:53.779Z,27.23
2022-08-12T10:38:34.104Z,27.45
2022-08-12T10:40:20.420Z,27.36
2022-08-12T10:43:07.282Z,27.53
2022-08-12T10:45:38.486Z,27.58
2022-08-12T10:48:21.681Z,27.67
2022-08-12T10:51:02.169Z,27.45
2022-08-12T10:53:44.294Z,27.74
2022-08-12T10:56:15.604Z,27.71
2022-08-12T10:58:46.094Z,27.58
2022-08-12T11:01:48.856Z,27.55
2022-08-12T11:04:20.236Z,27.78
2022-08-12T11:07:07.540Z,27.84
2022-08-12T11:10:00.574Z,27.46
2022-08-12T11:12:55.067Z,27.52
2022-08-12T11:15:32.790Z,27.61
2022-08-12T11:18:17.792Z,27.63
2022-08-12T11:20:48.720Z,27.65
2022-08-12T11:23:36.154Z,27.43
2022-08-12T11:26:08.476Z,27.58
2022-08-12T11:28:38.791Z,27.82
2022-08-12T11:31:12.148Z,27.54
2022-08-12T11:34:04.875Z,27.84
2022-08-12T11:36:31.880Z,27.65
2022-08-12T11:39:04.341Z,27.53
2022-08-12T11:41:35.975Z,27.30
2022-08-12T11:44:34.933Z,27.42
2022-08-12T11:46:54.852Z,27.25
2022-08-12T11:49:31.744Z,27.77
2022-08-12T11:52:17.609Z,28.15
2022-08-12T11:54:54.402Z,28.40
2022-08-12T11:58:08.143Z,28.77
2022-08-12T12:03:01.863Z,28.65
2022-08-12T12:05:39.569Z,28.50
2022-08-12T12:08:39.006Z,28.28
2022-08-12T12:10:59.370Z,27.98
2022-08-12T12:14:08.006Z,28.05
2022-08-12T12:16:17.422Z,27.91
2022-08-12T12:18:46.477Z,27.67
2022-08-12T12:21:15.878Z,27.55
2022-08-12T12:23:47.120Z,27.39
2022-08-12T12:26:34.904Z,27.41
2022-08-12T12:29:07.826Z,27.30
2022-08-12T12:32:09.312Z,27.29
2022-08-12T12:34:39.413Z,27.22
2022-08-12T12:38:04.391Z,27.30
2022-08-12T12:40:15.880Z,27.28
2022-08-12T12:42:55.490Z,27.29
2022-08-12T12:45:28.676Z,27.45
2022-08-12T12:48:02.754Z,27.45
2022-08-12T12:50:35.927Z,27.38
2022-08-12T12:54:07.839Z,27.73
2022-08-12T12:56:13.195Z,27.72
2022-08-12T12:58:43.574Z,28.00
2022-08-12T13:01:27.779Z,28.48
2022-08-12T13:04:02.547Z,28.89
2022-08-12T13:06:32.618Z,29.67
2022-08-12T13:09:04.164Z,29.77
2022-08-12T13:11:41.612Z,29.71
2022-08-12T13:14:29.621Z,29.33
2022-08-12T13:17:02.858Z,29.00
2022-08-12T13:19:37.748Z,28.71
2022-08-12T13:22:21.421Z,28.51
2022-08-12T13:24:56.883Z,28.22
2022-08-12T13:27:35.212Z,27.87
2022-08-12T13:30:11.383Z,27.68
2022-08-12T13:32:56.537Z,27.14
2022-08-12T13:35:33.058Z,27.01
2022-08-12T13:38:03.357Z,26.34
2022-08-12T13:40:34.196Z,26.56
2022-08-12T13:43:06.984Z,25.95
2022-08-12T13:45:36.971Z,26.27
2022-08-12T13:48:08.465Z,26.23
2022-08-12T13:50:39.104Z,26.06
2022-08-12T13:53:26.051Z,25.74
2022-08-12T13:56:01.472Z,24.90
2022-08-12T13:58:34.666Z,25.12
2022-08-12T14:01:06.461Z,25.02
2022-08-12T14:03:50.897Z,24.93
2022-08-12T14:06:20.962Z,23.74
2022-08-12T14:08:50.684Z,24.47
2022-08-12T14:11:25.072Z,24.24
2022-08-12T14:14:03.646Z,24.03
2022-08-12T14:16:48.323Z,23.91
2022-08-12T14:19:24.360Z,23.85
2022-08-12T14:21:59.440Z,23.47
2022-08-12T14:24:40.638Z,23.05
2022-08-12T14:27:11.184Z,23.06
2022-08-12T14:30:04.847Z,22.97
2022-08-12T14:32:35.344Z,23.15
2022-08-12T14:35:09.091Z,23.24
2022-08-12T14:37:56.074Z,23.50
2022-08-12T14:40:28.199Z,23.82
2022-08-12T14:42:57.720Z,24.03
2022-08-12T14:45:44.231Z,24.10
2022-08-12T14:48:15.530Z,24.26
2022-08-12T14:51:09.478Z,24.55
2022-08-12T14:59:56.636Z,25.11
2022-08-12T15:02:21.305Z,24.48
2022-08-12T15:04:56.215Z,23.00
2022-08-12T15:07:34.221Z,22.77
2022-08-12T15:10:31.077Z,21.97
2022-08-12T15:13:07.523Z,21.46
2022-08-12T15:15:44.101Z,20.13
2022-08-12T15:18:21.443Z,18.97
2022-08-12T15:20:51.289Z,18.60
2022-08-12T15:23:22.765Z,18.17
2022-08-12T15:26:00.047Z,18.22
2022-08-12T15:28:33.766Z,18.16
2022-08-12T15:31:21.609Z,18.01
2022-08-12T15:33:52.742Z,18.08
2022-08-12T15:36:50.270Z,17.30
2022-08-12T15:39:17.280Z,17.58
2022-08-12T15:41:49.859Z,16.47
2022-08-12T15:44:41.580Z,16.93
2022-08-12T15:47:08.176Z,16.82
2022-08-12T15:49:54.498Z,16.18
2022-08-12T15:52:28.060Z,16.97
2022-08-12T15:55:06.185Z,17.09
2022-08-12T15:57:41.673Z,17.17
2022-08-12T16:00:22.544Z,17.32
2022-08-12T16:03:02.029Z,16.91
2022-08-12T16:06:12.887Z,17.60
2022-08-12T16:08:27.219Z,17.71
2022-08-12T16:10:57.666Z,17.85
2022-08-12T16:13:32.323Z,17.64
2022-08-12T16:16:03.943Z,17.74
2022-08-12T16:18:40.582Z,17.62
2022-08-12T16:21:50.526Z,17.31
2022-08-12T16:24:04.565Z,17.26
2022-08-12T16:26:38.407Z,16.23
2022-08-12T16:29:14.616Z,17.03
2022-08-12T16:31:44.265Z,17.06
2022-08-12T16:34:41.952Z,17.13
2022-08-12T16:37:07.405Z,17.10
2022-08-12T16:40:00.391Z,17.46
2022-08-12T16:42:28.302Z,17.56
2022-08-12T16:44:57.842Z,17.48
2022-08-12T16:47:27.235Z,17.45
2022-08-12T16:49:59.303Z,17.43
2022-08-12T16:52:27.715Z,17.42
2022-08-12T16:54:56.446Z,17.35
2022-08-12T16:57:32.393Z,17.38
2022-08-12T17:00:06.202Z,16.59
2022-08-12T17:02:35.528Z,17.37
2022-08-12T17:05:07.165Z,17.40
2022-08-12T17:07:43.437Z,17.34
2022-08-12T17:10:18.209Z,17.08
2022-08-12T17:12:48.226Z,17.18
2022-08-12T17:15:51.146Z,17.32
2022-08-12T17:18:38.924Z,17.38
2022-08-12T17:20:58.631Z,17.27
2022-08-12T17:23:47.912Z,17.04
2022-08-12T17:26:16.625Z,17.29
2022-08-12T17:28:53.253Z,17.50
2022-08-12T17:32:01.124Z,17.66
2022-08-12T17:34:30.971Z,17.61
2022-08-12T17:37:05.465Z,17.55
2022-08-12T17:40:06.825Z,17.61
2022-08-12T17:42:32.595Z,17.69
2022-08-12T17:45:15.646Z,17.67
2022-08-12T17:48:01.783Z,17.66
2022-08-12T17:50:38.884Z,17.72
2022-08-12T17:53:10.755Z,17.55
2022-08-12T17:55:47.735Z,17.38
2022-08-12T17:58:17.974Z,17.43
2022-08-12T18:00:47.578Z,16.73
2022-08-12T18:04:04.601Z,17.09
2022-08-12T18:06:14.044Z,17.17
2022-08-12T18:08:43.586Z,17.04
2022-08-12T18:12:04.643Z,16.93
2022-08-12T18:14:30.762Z,16.89
2022-08-12T18:17:02.538Z,16.90
2022-08-12T18:20:04.142Z,16.77
2022-08-12T18:22:22.026Z,16.48
2022-08-12T18:25:03.619Z,16.77
2022-08-12T18:27:43.889Z,16.94
2022-08-12T18:30:16.317Z,17.06
2022-08-12T18:32:58.563Z,16.75
2022-08-12T18:35:29.973Z,17.27
2022-08-12T18:38:17.830Z,17.18
2022-08-12T18:41:07.309Z,17.10
2022-08-12T18:43:58.527Z,17.35
2022-08-12T18:46:35.735Z,17.34
2022-08-12T18:49:18.958Z,17.31
2022-08-12T18:51:55.361Z,17.13
2022-08-12T18:54:34.270Z,17.21
2022-08-12T18:57:05.074Z,16.92
2022-08-12T19:00:00.998Z,17.09
2022-08-12T19:02:23.533Z,16.80
2022-08-12T19:04:54.158Z,16.63
2022-08-12T19:07:24.047Z,16.92
2022-08-12T19:09:57.751Z,17.16
2022-08-12T19:12:57.402Z,17.13
2022-08-12T19:15:29.940Z,17.18
2022-08-12T19:18:02.779Z,17.22
2022-08-12T19:20:34.158Z,17.06
2022-08-12T19:23:07.809Z,17.07
2022-08-12T19:26:00.546Z,16.95
2022-08-12T19:28:35.214Z,17.40
2022-08-12T19:31:55.542Z,17.50
2022-08-12T19:37:26.747Z,17.59
2022-08-12T19:40:07.717Z,17.75
2022-08-12T19:42:42.713Z,17.77
2022-08-12T19:45:15.822Z,17.84
2022-08-12T19:47:46.328Z,17.87
2022-08-12T19:50:20.005Z,17.89
2022-08-12T19:52:51.088Z,17.56
2022-08-12T19:55:21.905Z,17.72
2022-08-12T19:58:03.278Z,17.66
2022-08-12T20:00:35.301Z,17.56
2022-08-12T20:03:06.632Z,17.45
2022-08-12T20:06:05.844Z,17.45
2022-08-12T20:08:33.963Z,17.40
2022-08-12T20:12:11.725Z,17.33
2022-08-12T20:14:01.225Z,17.53
2022-08-12T20:16:57.575Z,17.54
2022-08-12T20:19:52.895Z,17.68
2022-08-12T20:22:24.918Z,17.69
2022-08-12T20:25:02.031Z,17.64
2022-08-12T20:28:02.794Z,17.75
2022-08-12T20:30:37.202Z,17.61
2022-08-12T20:33:18.913Z,17.33
2022-08-12T20:36:13.688Z,17.84
2022-08-12T20:38:46.063Z,17.47
2022-08-12T20:41:19.303Z,17.58
2022-08-12T20:43:51.899Z,17.74
2022-08-12T20:46:21.401Z,17.79
2022-08-12T20:48:54.421Z,17.84
2022-08-12T20:51:23.630Z,17.81
2022-08-12T20:53:53.882Z,17.83
2022-08-12T20:56:34.920Z,17.71
2022-08-12T20:59:06.419Z,17.69
2022-08-12T21:01:45.893Z,17.65
2022-08-12T21:04:35.863Z,17.56
2022-08-12T21:07:08.373Z,17.65
2022-08-12T21:09:41.895Z,17.68
2022-08-12T21:12:24.798Z,17.60
2022-08-12T21:15:17.289Z,17.65
2022-08-12T21:18:01.148Z,17.72
2022-08-12T21:20:37.986Z,17.68
2022-08-12T21:23:06.578Z,17.64
2022-08-12T21:25:35.883Z,17.57
2022-08-12T21:28:14.864Z,17.55
2022-08-12T21:31:10.782Z,17.47
2022-08-12T21:33:58.326Z,17.56
2022-08-12T21:36:22.525Z,17.59
2022-08-12T21:38:53.960Z,17.74
2022-08-12T21:41:23.970Z,17.66
2022-08-12T21:43:53.727Z,17.86
2022-08-12T21:46:34.896Z,17.87
2022-08-12T21:49:05.640Z,17.88
2022-08-12T21:51:49.306Z,17.87
2022-08-12T21:54:21.995Z,17.83
2022-08-12T21:56:53.619Z,17.84
2022-08-12T21:59:23.498Z,17.86
2022-08-12T22:01:53.676Z,17.85
2022-08-12T22:04:39.798Z,17.56
2022-08-12T22:07:09.093Z,17.58
2022-08-12T22:09:43.206Z,17.61
2022-08-12T22:12:29.978Z,17.69
2022-08-12T22:14:59.685Z,17.70
2022-08-12T22:17:50.197Z,17.86
2022-08-12T22:20:27.543Z,17.89
2022-08-12T22:23:00.427Z,17.86
2022-08-12T22:25:31.351Z,17.92
2022-08-12T22:28:18.160Z,17.88
2022-08-12T22:31:15.219Z,17.97
2022-08-12T22:33:54.487Z,17.94
2022-08-12T22:36:29.953Z,17.96
2022-08-12T22:38:59.493Z,17.94
2022-08-12T22:41:45.739Z,17.92
2022-08-12T22:44:31.091Z,17.89
2022-08-12T22:47:45.821Z,17.87
2022-08-12T22:50:27.428Z,18.04
2022-08-12T22:53:15.557Z,17.59
2022-08-12T22:56:00.192Z,17.85
2022-08-12T22:58:40.292Z,17.86
2022-08-12T23:01:11.143Z,17.73
2022-08-12T23:03:49.007Z,17.86
2022-08-12T23:06:21.401Z,17.78
2022-08-12T23:08:50.054Z,17.83
2022-08-12T23:11:23.490Z,17.93
2022-08-12T23:13:56.151Z,17.96
2022-08-12T23:16:29.035Z,17.85
2022-08-12T23:19:10.061Z,17.91
2022-08-12T23:22:06.330Z,17.77
2022-08-12T23:24:55.924Z,17.71
2022-08-12T23:27:51.886Z,17.79
2022-08-12T23:30:31.950Z,17.82
2022-08-12T23:33:13.040Z,17.79
2022-08-12T23:35:58.960Z,18.02
2022-08-12T23:38:32.968Z,17.96
2022-08-12T23:41:03.573Z,18.02
2022-08-12T23:43:39.822Z,17.98
2022-08-12T23:46:10.137Z,17.50
2022-08-12T23:48:40.043Z,17.55
2022-08-12T23:51:23.818Z,17.83
2022-08-12T23:53:55.363Z,17.78
2022-08-12T23:56:25.231Z,17.72
2022-08-12T23:58:57.553Z,17.78
